Dobrodošli na spletni strani vremenske postaje Senovo. Vse informacije so informativnega značaja, saj vremenska postaja ni del državne mreže meteoroloških postaj. AKTUALNIH OBVESTIL NI.


Sneg/Led Od: 23-02-2018 00:00 Do: 23:59 Opozorilo za: Sneg/Led Stopnja: Rumena info button

Pogled proti Armezu več informacij Pogled proti Armezu


Lisca več informacij Lisca


Radar strel več informacij blitzortung!


opozorilo za sneg/led več informacij rain snow radar


Obiščite še:

Template documentation
and downloads

And another site



Weather Underground, zgodovina - Tekstovno

Dnevni povzetek za December 10, 2017 Enote:  Metrično    Angleško   Obe
« Predhodni Dan
Naslednji Dan »
Dnevni Tedenski Mesečni Letni Po meri
  Višja: Nižja: Povprečje:
Temperatura: -17.8 °C -21.8 °C -19.4 °C
Točka rosišča: -17.8 °C -22.6 °C -20.3 °C
Vlažnost: Humidity % 0 % 87 %
Hitrost vetra: 0 km/h 0 km/h 1.4 km/h
Sunki vetra: 0 km/h - -
Veter:- - SSW
Zračni tlak: 0 hPa 0 hPa -
Padavine: 0 mm    
Historical Graphs
 
 
Tabelarni podarki za December 10, 2017
Čas Temperatura Točka rosišča Zračni tlak Veter Hitrost vetra Sunki vetra Vlažnost Intenziteta padavin (urna)
-17.8 °C -17.8 °C 0 hPa Calm     Humidity % 0 mm
00:00 -21.4 °C -22.2 °C 34371.3 hPa SW 1 km/h 5.1 km/h 90 % 0 mm
00:05 -21.4 °C -22.2 °C 34371.3 hPa SW 0.3 km/h 3.4 km/h 90 % 0 mm
00:10 -21.4 °C -22.2 °C 34371.3 hPa Calm   5.6 km/h 90 % 0 mm
00:15 -21.5 °C -22.3 °C 34371.3 hPa SW 0.8 km/h 5.6 km/h 90 % 0 mm
00:20 -21.5 °C -22.3 °C 34371.3 hPa SW 2.3 km/h 6.4 km/h 90 % 0 mm
00:25 -21.6 °C -22.3 °C 34371.3 hPa SSW 3.4 km/h 6.4 km/h 90 % 0 mm
00:30 -21.6 °C -22.4 °C 34371.3 hPa WNW 3.7 km/h 6.4 km/h 90 % 0 mm
00:40 -21.7 °C -22.4 °C 34371.3 hPa Calm   5.1 km/h 90 % 0 mm
00:45 -21.7 °C -22.4 °C 34371.3 hPa SW 0.3 km/h 5.1 km/h 90 % 0 mm
00:50 -21.7 °C -22.4 °C 34371.3 hPa SSW 0.3 km/h 2.9 km/h 90 % 0 mm
00:55 -21.7 °C -22.4 °C 34371.3 hPa SW 2.1 km/h 8 km/h 90 % 0 mm
01:00 -21.7 °C -22.4 °C 34371.3 hPa SW 4.7 km/h 8 km/h 90 % 0 mm
01:05 -21.8 °C -22.6 °C 34371.3 hPa West 3.4 km/h 7.6 km/h 90 % 0 mm
01:11 -21.8 °C -22.6 °C 34371.3 hPa NW 2.1 km/h 4.2 km/h 90 % 0 mm
01:16 -21.7 °C -22.4 °C 34371.3 hPa West 2.9 km/h 6.4 km/h 90 % 0 mm
01:21 -21.7 °C -22.4 °C 34371.3 hPa SW 2.6 km/h 6.4 km/h 90 % 0 mm
01:31 -21.7 °C -22.3 °C 34371.3 hPa Calm     91 % 0 mm
01:36 -21.6 °C -22.4 °C 34371.3 hPa SSW 0.3 km/h 5.1 km/h 90 % 0 mm
01:41 -21.5 °C -22.3 °C 34371.3 hPa SW 1 km/h 5.1 km/h 90 % 0 mm
01:46 -21.5 °C -22.3 °C 34371.3 hPa WNW 3.4 km/h 6.9 km/h 90 % 0 mm
01:56 -21.4 °C -22.1 °C 34371.3 hPa NW 0.3 km/h 3.4 km/h 91 % 0 mm
02:06 -21.3 °C -22 °C 34371.3 hPa NW 0.3 km/h 5.1 km/h 91 % 0 mm
02:21 -21.2 °C -21.8 °C 34371.3 hPa SW 1.8 km/h 6.4 km/h 91 % 0 mm
02:26 -21.1 °C -21.8 °C 34371.3 hPa WSW 1.3 km/h 6.4 km/h 91 % 0 mm
02:31 -21.1 °C -21.8 °C 34371.3 hPa West 1.8 km/h 6.4 km/h 91 % 0 mm
02:36 -21.1 °C -21.8 °C 34371.3 hPa West 1.3 km/h 5.1 km/h 91 % 0 mm
02:46 -21.2 °C -21.8 °C 34371.3 hPa Calm     91 % 0 mm
02:51 -21.2 °C -21.9 °C 34371.3 hPa Calm     91 % 0 mm
02:56 -21.2 °C -21.9 °C 34371.3 hPa Calm     91 % 0 mm
03:01 -21.2 °C -21.9 °C 34371.3 hPa Calm     91 % 0 mm
03:06 -21.2 °C -21.9 °C 34371.3 hPa Calm     91 % 0 mm
03:11 -21.3 °C -22 °C 34371.3 hPa Calm     91 % 0 mm
03:16 -21.4 °C -22.1 °C 34371.3 hPa Calm     91 % 0 mm
03:36 -21.6 °C -22.2 °C 34337.4 hPa Calm     91 % 0 mm
03:41 -21.6 °C -22.3 °C 34337.4 hPa Calm     91 % 0 mm
03:46 -21.6 °C -22.3 °C 34337.4 hPa Calm     91 % 0 mm
03:51 -21.6 °C -22.3 °C 34337.4 hPa Calm     91 % 0 mm
03:56 -21.7 °C -22.3 °C 34337.4 hPa Calm     91 % 0 mm
04:04 -21.7 °C -22.3 °C 34337.4 hPa Calm     91 % 0 mm
04:09 -21.7 °C -22.3 °C 34337.4 hPa Calm     91 % 0 mm
04:15 -21.6 °C -22.3 °C 34337.4 hPa Calm     91 % 0 mm
04:20 -21.6 °C -22.2 °C 34337.4 hPa Calm     91 % 0 mm
04:21 -21.6 °C -22.2 °C 34337.4 hPa Calm     91 % 0 mm
04:23 -21.6 °C -22.2 °C 34337.4 hPa Calm     91 % 0 mm
04:25 -21.5 °C -22.2 °C 34337.4 hPa NW 0.3 km/h 5.1 km/h 91 % 0 mm
04:30 -21.5 °C -22.2 °C 34337.4 hPa NW 1.8 km/h 5.6 km/h 91 % 0 mm
04:35 -21.4 °C -22.1 °C 34337.4 hPa NW 1.6 km/h 5.6 km/h 91 % 0 mm
04:40 -21.4 °C -22.1 °C 34337.4 hPa Calm     91 % 0 mm
04:45 -21.4 °C -22.1 °C 34337.4 hPa NW 0.3 km/h 3.4 km/h 91 % 0 mm
04:50 -21.4 °C -22.1 °C 34337.4 hPa NW 1.6 km/h 6.4 km/h 91 % 0 mm
04:55 -21.3 °C -22 °C 34337.4 hPa NW 2.9 km/h 6.9 km/h 91 % 0 mm
05:00 -21.3 °C -22 °C 34337.4 hPa NW 1.8 km/h 6.9 km/h 91 % 0 mm
05:05 -17.8 °C -21.9 °C 0 hPa NW 1.6 km/h 3.7 km/h 0 % 0 mm
05:10 -21.2 °C -21.8 °C 34337.4 hPa ENE 0.8 km/h 3.4 km/h 92 % 0 mm
05:15 -21.2 °C -21.8 °C 34337.4 hPa NNE 1 km/h 4.2 km/h 92 % 0 mm
05:20 -21.2 °C -21.8 °C 34337.4 hPa NNW 2.3 km/h 5.6 km/h 92 % 0 mm
05:25 -21.2 °C -21.8 °C 34303.6 hPa NNW 2.6 km/h 5.6 km/h 92 % 0 mm
05:30 -21.2 °C -21.8 °C 34303.6 hPa North 2.1 km/h 4.2 km/h 92 % 0 mm
05:35 -21.2 °C -21.8 °C 34303.6 hPa NE 3.1 km/h 6.4 km/h 92 % 0 mm
05:40 -21.2 °C -21.8 °C 34303.6 hPa ENE 2.9 km/h 6.4 km/h 92 % 0 mm
05:55 -21.3 °C -21.9 °C 34303.6 hPa NE 2.1 km/h 6.4 km/h 92 % 0 mm
06:01 -21.3 °C -21.9 °C 34303.6 hPa NNE 2.6 km/h 6.4 km/h 92 % 0 mm
06:06 -21.3 °C -21.9 °C 34303.6 hPa NE 2.3 km/h 5.1 km/h 92 % 0 mm
06:11 -21.3 °C -21.9 °C 34303.6 hPa ENE 1.3 km/h 5.1 km/h 92 % 0 mm
06:16 -21.3 °C -21.9 °C 34303.6 hPa Calm   2.3 km/h 92 % 0 mm
06:21 -21.2 °C -21.8 °C 34303.6 hPa East 0.8 km/h 5.1 km/h 92 % 0 mm
06:26 -21.2 °C -21.8 °C 34303.6 hPa ENE 3.1 km/h 5.6 km/h 92 % 0 mm
06:31 -21.2 °C -21.8 °C 34303.6 hPa ENE 3.9 km/h 6.4 km/h 92 % 0 mm
06:36 -21.2 °C -21.8 °C 34303.6 hPa ENE 2.6 km/h 6.4 km/h 92 % 0 mm
06:46 -21.2 °C -21.8 °C 34303.6 hPa WNW 0.3 km/h 3.4 km/h 92 % 0 mm
06:51 -21.3 °C -21.9 °C 34303.6 hPa Calm     92 % 0 mm
06:56 -21.3 °C -21.9 °C 34303.6 hPa Calm   2.9 km/h 92 % 0 mm
07:01 -21.2 °C -21.8 °C 34303.6 hPa ESE 1 km/h 5.1 km/h 92 % 0 mm
07:11 -21.3 °C -21.9 °C 34269.7 hPa NNE 2.9 km/h 5.1 km/h 92 % 0 mm
07:16 -21.3 °C -21.9 °C 34269.7 hPa NNW 2.6 km/h 5.1 km/h 92 % 0 mm
07:21 -21.3 °C -21.9 °C 34269.7 hPa NNW 2.3 km/h 4.2 km/h 92 % 0 mm
07:26 -21.3 °C -21.9 °C 34303.6 hPa NNW 1 km/h 4.2 km/h 92 % 0 mm
07:31 -21.2 °C -21.8 °C 34303.6 hPa Calm     92 % 0 mm
07:41 -21.2 °C -21.8 °C 34303.6 hPa Calm     92 % 0 mm
07:51 -21.2 °C -21.8 °C 34303.6 hPa Calm     92 % 0 mm
07:56 -21.2 °C -21.8 °C 34303.6 hPa Calm     92 % 0 mm
08:01 -21.2 °C -21.8 °C 34303.6 hPa NNW 0.3 km/h 3.4 km/h 92 % 0 mm
08:11 -21.2 °C -21.8 °C 34303.6 hPa Calm   2.9 km/h 92 % 0 mm
08:16 -21.2 °C -21.8 °C 34303.6 hPa Calm   2.9 km/h 92 % 0 mm
08:21 -21.1 °C -21.7 °C 34303.6 hPa NE 0.8 km/h 4.2 km/h 92 % 0 mm
08:26 -21.1 °C -21.7 °C 34303.6 hPa NE 2.1 km/h 4.2 km/h 92 % 0 mm
08:36 -21.1 °C -21.7 °C 34303.6 hPa NW 1 km/h 4.2 km/h 92 % 0 mm
08:41 -21.1 °C -21.7 °C 34303.6 hPa NNW 0.5 km/h 3.4 km/h 92 % 0 mm
08:46 -21 °C -21.6 °C 34303.6 hPa NW 0.8 km/h 6.4 km/h 92 % 0 mm
08:51 -21 °C -21.6 °C 34303.6 hPa NW 2.1 km/h 6.9 km/h 92 % 0 mm
08:56 -20.9 °C -21.6 °C 34303.6 hPa NW 3.7 km/h 6.9 km/h 92 % 0 mm
09:01 -20.9 °C -21.6 °C 34303.6 hPa NNW 3.7 km/h 6.4 km/h 92 % 0 mm
09:11 -20.9 °C -21.5 °C 34303.6 hPa Calm     92 % 0 mm
09:21 -20.8 °C -21.4 °C 34303.6 hPa Calm     92 % 0 mm
09:26 -20.8 °C -21.4 °C 34303.6 hPa Calm   2.3 km/h 92 % 0 mm
09:31 -20.8 °C -21.4 °C 34303.6 hPa NE 0.3 km/h 5.6 km/h 92 % 0 mm
09:41 -20.7 °C -21.3 °C 34303.6 hPa WNW 0.5 km/h 4.2 km/h 92 % 0 mm
09:46 -20.6 °C -21.2 °C 34303.6 hPa WSW 0.5 km/h 4.2 km/h 92 % 0 mm
09:51 -20.6 °C -21.2 °C 34303.6 hPa NW 0.8 km/h 5.1 km/h 92 % 0 mm
09:56 -20.6 °C -21.1 °C 34269.7 hPa NW 1 km/h 5.1 km/h 93 % 0 mm
10:01 -20.4 °C -21.1 °C 34269.7 hPa NNE 0.8 km/h 4.2 km/h 92 % 0 mm
10:11 -20.3 °C -20.9 °C 34269.7 hPa ENE 3.1 km/h 4.2 km/h 93 % 0 mm
10:21 -20.3 °C -20.8 °C 34269.7 hPa ENE 3.1 km/h 6.4 km/h 93 % 0 mm
10:26 -20.3 °C -20.8 °C 34269.7 hPa East 1.3 km/h 5.1 km/h 93 % 0 mm
10:31 -20.3 °C -20.8 °C 34269.7 hPa ENE 1.6 km/h 5.6 km/h 93 % 0 mm
10:36 -20.3 °C -20.8 °C 34269.7 hPa ENE 1 km/h 5.6 km/h 93 % 0 mm
10:41 -17.8 °C -20.8 °C 0 hPa North 0.3 km/h   0 % 0 mm
10:46 -17.8 °C -20.8 °C 34235.8 hPa Calm   3.4 km/h 0 % 0 mm
10:51 -17.8 °C -20.8 °C 0 hPa Calm   2.9 km/h 0 % 0 mm
10:56 -20.1 °C -20.6 °C 34269.7 hPa SW 0.5 km/h 3.4 km/h 93 % 0 mm
11:01 -19.9 °C -20.4 °C 34269.7 hPa SW 0.3 km/h 3.7 km/h 93 % 0 mm
11:06 -19.9 °C -20.4 °C 34269.7 hPa Calm     93 % 0 mm
11:11 -19.9 °C -20.4 °C 34235.8 hPa Calm     93 % 0 mm
11:16 -19.9 °C -20.4 °C 34235.8 hPa ESE 0.8 km/h 3.4 km/h 93 % 0 mm
11:21 -19.9 °C -20.4 °C 34235.8 hPa East 2.1 km/h 6.9 km/h 93 % 0 mm
11:31 -19.9 °C -20.4 °C 34164.7 hPa East 0.5 km/h 2.9 km/h 93 % 0 mm
11:36 -19.5 °C -20.1 °C 34164.7 hPa Calm     93 % 0 mm
11:41 -19.2 °C -19.7 °C 34164.7 hPa Calm     93 % 0 mm
11:46 -19.1 °C -19.6 °C 34164.7 hPa Calm   4.2 km/h 93 % 0 mm
11:56 -18.9 °C -19.5 °C 34130.9 hPa SSE 0.8 km/h 3.4 km/h 93 % 0 mm
12:01 -18.6 °C -19.2 °C 34130.9 hPa SSW 0.3 km/h 3.4 km/h 93 % 0 mm
12:16 -18.6 °C -19.1 °C 34164.7 hPa SSW 2.1 km/h 6.4 km/h 93 % 0 mm
12:21 -18.4 °C -19 °C 34164.7 hPa SW 0.5 km/h 6.4 km/h 93 % 0 mm
12:26 -18.3 °C -18.9 °C 34164.7 hPa SSW 1.8 km/h 7.6 km/h 93 % 0 mm
12:31 -18.2 °C -18.8 °C 34164.7 hPa South 3.1 km/h 7.6 km/h 93 % 0 mm
12:36 -18.1 °C -18.7 °C 34164.7 hPa South 1.8 km/h 7.6 km/h 93 % 0 mm
12:41 -18.1 °C -18.7 °C 34130.9 hPa SSE 2.3 km/h 7.6 km/h 93 % 0 mm
12:46 -18.1 °C -18.7 °C 34130.9 hPa SSE 3.9 km/h 7.6 km/h 93 % 0 mm
12:51 -18 °C -18.6 °C 34130.9 hPa South 3.4 km/h 8.9 km/h 93 % 0 mm
13:01 -17.9 °C -18.5 °C 34130.9 hPa SSE 7.6 km/h 10.3 km/h 93 % 0 mm
13:06 -17.9 °C -18.5 °C 34130.9 hPa South 6.4 km/h 10.3 km/h 93 % 0 mm
13:11 -17.9 °C -18.5 °C 34130.9 hPa SSW 3.7 km/h 8 km/h 93 % 0 mm
13:16 -17.8 °C -18.3 °C 34130.9 hPa SSW 3.1 km/h 7.6 km/h 93 % 0 mm
13:21 -17.8 °C -18.3 °C 34130.9 hPa South 3.4 km/h 7.6 km/h 93 % 0 mm
13:26 -17.8 °C -18.3 °C 34097 hPa South 3.7 km/h 6.9 km/h 93 % 0 mm
13:31 -17.6 °C -18.2 °C 34097 hPa South 4.3 km/h 7.6 km/h 93 % 0 mm
13:36 -17.6 °C -18.2 °C 34097 hPa SSW 3.4 km/h 7.6 km/h 93 % 0 mm
13:41 -17.6 °C -18.2 °C 34063.2 hPa SW 1.6 km/h 5.1 km/h 93 % 0 mm
13:46 -17.6 °C -18.2 °C 34063.2 hPa South 0.8 km/h 5.1 km/h 93 % 0 mm
13:51 -17.6 °C -18.2 °C 34063.2 hPa South 0.5 km/h 5.6 km/h 93 % 0 mm
13:56 -17.6 °C -18.2 °C 34097 hPa South 0.8 km/h 7.6 km/h 93 % 0 mm
14:01 -17.8 °C -18.2 °C 34097 hPa Calm     0 % 0 mm
14:11 -17.6 °C -18.2 °C 34097 hPa SW 3.9 km/h 6.9 km/h 92 % 0 mm
14:21 -17.6 °C -18.2 °C 34029.3 hPa SW 1.6 km/h 6.4 km/h 92 % 0 mm
14:26 -17.6 °C -18.2 °C 34029.3 hPa SW 0.5 km/h 4.2 km/h 92 % 0 mm
14:31 -17.6 °C -18.2 °C 34029.3 hPa Calm     92 % 0 mm
14:36 -17.6 °C -18.2 °C 34029.3 hPa South 1.3 km/h 8 km/h 92 % 0 mm
14:41 -17.6 °C -18.2 °C 34029.3 hPa South 3.7 km/h 8 km/h 92 % 0 mm
14:46 -17.6 °C -18.2 °C 34029.3 hPa South 3.4 km/h 6.9 km/h 92 % 0 mm
14:56 -17.6 °C -18.2 °C 34029.3 hPa SSW 2.9 km/h 4.2 km/h 92 % 0 mm
16:11 -17.8 °C -18.7 °C 0 hPa Calm     0 % 0 mm
16:16 -17.6 °C -18.8 °C 33924.3 hPa SW 0.5 km/h 2.3 km/h 85 % 0 mm
16:21 -17.6 °C -18.8 °C 33924.3 hPa SW 1.3 km/h 2.3 km/h 85 % 0 mm
16:26 -17.6 °C -18.8 °C 33924.3 hPa SW 2.3 km/h 2.3 km/h 85 % 0 mm
16:36 -17.7 °C -18.9 °C 33924.3 hPa Calm     85 % 0 mm
16:41 -17.7 °C -18.8 °C 33958.2 hPa Calm     86 % 0 mm
16:46 -17.7 °C -18.8 °C 33958.2 hPa Calm     86 % 0 mm
16:51 -17.7 °C -18.8 °C 33958.2 hPa SSW 0.3 km/h 8 km/h 86 % 0 mm
16:56 -17.6 °C -18.8 °C 33958.2 hPa SSW 4.2 km/h 8 km/h 86 % 0 mm
17:01 -17.6 °C -18.7 °C 33958.2 hPa SSW 5.5 km/h 8 km/h 86 % 0 mm
17:06 -17.5 °C -18.6 °C 33958.2 hPa South 2.9 km/h 6.4 km/h 87 % 0 mm
17:16 -17.4 °C -18.5 °C 33958.2 hPa SE 1.3 km/h 5.1 km/h 87 % 0 mm
17:21 -17.3 °C -18.4 °C 33958.2 hPa SSW 4.3 km/h 11.1 km/h 87 % 0 mm
17:27 -17.2 °C -18.3 °C 33958.2 hPa SW 4.7 km/h 11.1 km/h 87 % 0 mm
17:32 -17.2 °C -18.2 °C 33958.2 hPa West 2.9 km/h 8 km/h 87 % 0 mm
17:42 -17.2 °C -18.3 °C 33958.2 hPa North 2.6 km/h 5.1 km/h 87 % 0 mm
17:47 -17.3 °C -18.3 °C 33958.2 hPa North 2.3 km/h 4.2 km/h 88 % 0 mm
17:52 -17.3 °C -18.3 °C 33958.2 hPa North 1.6 km/h 4.2 km/h 88 % 0 mm
17:57 -17.4 °C -18.4 °C 33924.3 hPa North 0.5 km/h 4.2 km/h 88 % 0 mm
18:02 -17.4 °C -18.4 °C 33924.3 hPa WNW 0.8 km/h 2.3 km/h 88 % 0 mm
18:04 -17.4 °C -18.4 °C 33924.3 hPa WNW 1 km/h 2.3 km/h 88 % 0 mm
18:09 -17.4 °C -18.4 °C 33924.3 hPa WNW 0.8 km/h 2.3 km/h 88 % 0 mm
18:14 -17.4 °C -18.4 °C 33924.3 hPa North 0.3 km/h   88 % 0 mm
18:19 -17.5 °C -18.5 °C 33924.3 hPa Calm     88 % 0 mm
18:24 -17.5 °C -18.5 °C 33924.3 hPa Calm     88 % 0 mm
18:29 -17.5 °C -18.5 °C 33924.3 hPa Calm     88 % 0 mm
18:34 -17.6 °C -18.5 °C 33924.3 hPa Calm     88 % 0 mm
18:39 -17.6 °C -18.5 °C 33924.3 hPa Calm     88 % 0 mm
18:49 -17.6 °C -18.6 °C 33924.3 hPa Calm     88 % 0 mm
18:54 -17.6 °C -18.6 °C 33924.3 hPa Calm     88 % 0 mm
18:59 -17.6 °C -18.6 °C 33924.3 hPa Calm     88 % 0 mm
19:09 -17.6 °C -18.5 °C 33924.3 hPa Calm     89 % 0 mm
19:14 -17.6 °C -18.5 °C 33958.2 hPa NNW 0.3 km/h 4.2 km/h 89 % 0 mm
19:19 -17.6 °C -18.5 °C 33958.2 hPa NNW 0.5 km/h 4.2 km/h 89 % 0 mm
19:24 -17.6 °C -18.5 °C 33958.2 hPa NNW 0.3 km/h 3.4 km/h 89 % 0 mm
19:29 -17.7 °C -18.6 °C 33958.2 hPa Calm     89 % 0 mm
19:34 -17.7 °C -18.6 °C 33958.2 hPa NNW 1 km/h 6.9 km/h 89 % 0 mm
19:39 -17.7 °C -18.6 °C 33958.2 hPa NW 2.3 km/h 6.9 km/h 89 % 0 mm
19:44 -17.7 °C -18.6 °C 33958.2 hPa WNW 1.3 km/h 6.4 km/h 89 % 0 mm
19:49 -17.7 °C -18.6 °C 33958.2 hPa North 0.3 km/h   89 % 0 mm
19:54 -17.7 °C -18.6 °C 33958.2 hPa SSW 0.8 km/h 5.6 km/h 89 % 0 mm
19:59 -17.3 °C -18.1 °C 33958.2 hPa SSW 2.1 km/h 5.6 km/h 90 % 0 mm
20:04 -17.3 °C -18.1 °C 33958.2 hPa SSW 1.8 km/h 5.6 km/h 90 % 0 mm
20:10 -17.3 °C -18.1 °C 33958.2 hPa West 3.4 km/h 6.9 km/h 90 % 0 mm
21:20 -16.6 °C -18.7 °C 33924.3 hPa SSW 5 km/h 8 km/h 76 % 0 mm
21:30 -16.7 °C -18.7 °C 33924.3 hPa SSW 5.5 km/h 9.8 km/h 77 % 0 mm
21:35 -16.8 °C -18.8 °C 33924.3 hPa SSW 4.7 km/h 8 km/h 77 % 0 mm
21:40 -16.8 °C -18.7 °C 33924.3 hPa SW 4.2 km/h 8.9 km/h 78 % 0 mm
21:45 -16.9 °C -18.8 °C 33890.5 hPa SSW 5.6 km/h 12.2 km/h 78 % 0 mm
21:50 -16.9 °C -18.8 °C 33890.5 hPa SSW 5.1 km/h 12.2 km/h 78 % 0 mm
21:55 -17 °C -18.8 °C 33890.5 hPa SW 1.8 km/h 5.1 km/h 79 % 0 mm
22:00 -17.1 °C -18.8 °C 33924.3 hPa SW 0.5 km/h 3.4 km/h 79 % 0 mm
22:05 -17.1 °C -18.8 °C 33924.3 hPa Calm     79 % 0 mm
22:10 -17.1 °C -18.8 °C 33924.3 hPa Calm     80 % 0 mm
22:15 -17.2 °C -18.8 °C 33890.5 hPa Calm     80 % 0 mm
22:20 -17.2 °C -18.8 °C 33890.5 hPa Calm     80 % 0 mm
22:25 -17.2 °C -18.8 °C 33890.5 hPa Calm     81 % 0 mm
22:27 -17.2 °C -18.8 °C 33890.5 hPa Calm     81 % 0 mm
22:32 -17.2 °C -18.8 °C 33890.5 hPa Calm     81 % 0 mm
22:37 -17.3 °C -18.8 °C 33890.5 hPa Calm     82 % 0 mm
22:47 -17.3 °C -18.7 °C 33890.5 hPa Calm     83 % 0 mm
22:52 -17.3 °C -18.7 °C 33890.5 hPa Calm     83 % 0 mm
22:57 -17.3 °C -18.6 °C 33890.5 hPa Calm     84 % 0 mm
23:02 -17.3 °C -18.7 °C 33890.5 hPa Calm     84 % 0 mm
23:07 -17.3 °C -18.7 °C 33890.5 hPa SW 0.5 km/h 6.9 km/h 84 % 0 mm
23:12 -17.3 °C -18.6 °C 33890.5 hPa SSW 2.3 km/h 6.9 km/h 85 % 0 mm
23:22 -17.3 °C -18.5 °C 33924.3 hPa SW 2.3 km/h 6.4 km/h 85 % 0 mm
23:32 -17.3 °C -18.4 °C 33890.5 hPa SW 2.9 km/h 6.9 km/h 86 % 0 mm
23:37 -17.3 °C -18.4 °C 33890.5 hPa SW 4.2 km/h 6.4 km/h 86 % 0 mm
23:42 -17.3 °C -18.4 °C 33890.5 hPa SW 2.3 km/h 6.4 km/h 86 % 0 mm
23:47 -17.3 °C -18.3 °C 33890.5 hPa SW 0.5 km/h 2.9 km/h 87 % 0 mm
Vremenska postaja Senovo
Podatki zbrani iz Weather Underground - 2.5 mb

Script developed by  Jim McMurry - jmcmurry@mwt.net Adapted for the template by  Wim van der Kuil - Leuven-Template.eu

Vremenski podatki so objavljeni na:

European Weather Network

WeatherCloud

Weather Underground

AWEKAS

HAMweather, WeatherForYou, PWS Weather

MapView

Geostik

Slovenia weather network

Oprema, ki se uporablja:

Vremenski program
Cumulus

Vremenski server
Asus

Cumulus

Asus